sensor_id;sensor_type;location;lat;lon;timestamp;temperature;humidity
19192;DHT22;9728;48.194;16.346;2022-10-16T00:01:23;21.00;56.70
19192;DHT22;9728;48.194;16.346;2022-10-16T00:06:28;20.90;56.70
19192;DHT22;9728;48.194;16.346;2022-10-16T00:11:34;20.90;56.80
19192;DHT22;9728;48.194;16.346;2022-10-16T00:16:38;20.90;56.80
19192;DHT22;9728;48.194;16.346;2022-10-16T00:21:43;20.90;56.80
19192;DHT22;9728;48.194;16.346;2022-10-16T00:26:49;20.90;57.00
19192;DHT22;9728;48.194;16.346;2022-10-16T00:31:53;20.90;57.10
19192;DHT22;9728;48.194;16.346;2022-10-16T00:36:58;20.80;56.90
19192;DHT22;9728;48.194;16.346;2022-10-16T00:42:01;20.80;57.10
19192;DHT22;9728;48.194;16.346;2022-10-16T00:47:06;20.80;57.00
19192;DHT22;9728;48.194;16.346;2022-10-16T00:52:13;20.80;57.10
19192;DHT22;9728;48.194;16.346;2022-10-16T00:57:18;20.80;57.20
19192;DHT22;9728;48.194;16.346;2022-10-16T01:02:21;20.80;57.10
19192;DHT22;9728;48.194;16.346;2022-10-16T01:07:36;20.80;57.10
19192;DHT22;9728;48.194;16.346;2022-10-16T01:12:45;20.80;57.40
19192;DHT22;9728;48.194;16.346;2022-10-16T01:17:56;20.80;57.20
19192;DHT22;9728;48.194;16.346;2022-10-16T01:23:15;20.80;57.20
19192;DHT22;9728;48.194;16.346;2022-10-16T01:28:28;20.70;57.30
19192;DHT22;9728;48.194;16.346;2022-10-16T01:33:37;20.70;57.20
19192;DHT22;9728;48.194;16.346;2022-10-16T01:38:44;20.70;57.10
19192;DHT22;9728;48.194;16.346;2022-10-16T01:43:57;20.70;57.10
19192;DHT22;9728;48.194;16.346;2022-10-16T01:49:05;20.70;57.30
19192;DHT22;9728;48.194;16.346;2022-10-16T01:54:09;20.70;57.10
19192;DHT22;9728;48.194;16.346;2022-10-16T01:59:19;20.70;57.10
19192;DHT22;9728;48.194;16.346;2022-10-16T02:04:26;20.70;57.30
19192;DHT22;9728;48.194;16.346;2022-10-16T02:09:33;20.60;57.30
19192;DHT22;9728;48.194;16.346;2022-10-16T02:14:39;20.60;57.30
19192;DHT22;9728;48.194;16.346;2022-10-16T02:19:44;20.60;57.30
19192;DHT22;9728;48.194;16.346;2022-10-16T02:24:51;20.60;57.30
19192;DHT22;9728;48.194;16.346;2022-10-16T02:30:02;20.60;57.40
19192;DHT22;9728;48.194;16.346;2022-10-16T02:35:10;20.60;57.40
19192;DHT22;9728;48.194;16.346;2022-10-16T02:40:14;20.60;57.20
19192;DHT22;9728;48.194;16.346;2022-10-16T02:45:23;20.60;57.30
19192;DHT22;9728;48.194;16.346;2022-10-16T02:50:27;20.60;57.30
19192;DHT22;9728;48.194;16.346;2022-10-16T02:55:30;20.50;57.20
19192;DHT22;9728;48.194;16.346;2022-10-16T03:00:35;20.50;57.30
19192;DHT22;9728;48.194;16.346;2022-10-16T03:05:39;20.50;57.30
19192;DHT22;9728;48.194;16.346;2022-10-16T03:10:42;20.50;57.30
19192;DHT22;9728;48.194;16.346;2022-10-16T03:15:47;20.50;57.20
19192;DHT22;9728;48.194;16.346;2022-10-16T03:20:50;20.50;57.30
19192;DHT22;9728;48.194;16.346;2022-10-16T03:25:54;20.50;57.30
19192;DHT22;9728;48.194;16.346;2022-10-16T03:30:59;20.40;57.20
19192;DHT22;9728;48.194;16.346;2022-10-16T03:36:02;20.40;57.30
19192;DHT22;9728;48.194;16.346;2022-10-16T03:41:06;20.40;57.20
19192;DHT22;9728;48.194;16.346;2022-10-16T03:46:11;20.40;57.30
19192;DHT22;9728;48.194;16.346;2022-10-16T03:51:14;20.40;57.30
19192;DHT22;9728;48.194;16.346;2022-10-16T03:56:17;20.40;57.20
19192;DHT22;9728;48.194;16.346;2022-10-16T04:01:22;20.40;57.20
19192;DHT22;9728;48.194;16.346;2022-10-16T04:06:25;20.40;57.20
19192;DHT22;9728;48.194;16.346;2022-10-16T04:11:29;20.40;57.10
19192;DHT22;9728;48.194;16.346;2022-10-16T04:16:33;20.40;57.10
19192;DHT22;9728;48.194;16.346;2022-10-16T04:21:37;20.30;57.10
19192;DHT22;9728;48.194;16.346;2022-10-16T04:26:40;20.30;56.90
19192;DHT22;9728;48.194;16.346;2022-10-16T04:31:46;20.30;56.90
19192;DHT22;9728;48.194;16.346;2022-10-16T04:36:50;20.30;57.00
19192;DHT22;9728;48.194;16.346;2022-10-16T04:41:53;20.20;56.90
19192;DHT22;9728;48.194;16.346;2022-10-16T04:46:58;20.20;56.90
19192;DHT22;9728;48.194;16.346;2022-10-16T04:52:01;20.20;57.00
19192;DHT22;9728;48.194;16.346;2022-10-16T04:57:05;20.10;56.90
19192;DHT22;9728;48.194;16.346;2022-10-16T05:02:09;20.10;56.90
19192;DHT22;9728;48.194;16.346;2022-10-16T05:07:13;20.00;56.90
19192;DHT22;9728;48.194;16.346;2022-10-16T05:12:16;20.00;56.90
19192;DHT22;9728;48.194;16.346;2022-10-16T05:17:21;20.00;56.90
19192;DHT22;9728;48.194;16.346;2022-10-16T05:22:25;19.90;57.00
19192;DHT22;9728;48.194;16.346;2022-10-16T05:27:29;19.90;57.00
19192;DHT22;9728;48.194;16.346;2022-10-16T05:32:34;19.90;57.10
19192;DHT22;9728;48.194;16.346;2022-10-16T05:37:37;19.80;57.10
19192;DHT22;9728;48.194;16.346;2022-10-16T05:42:40;19.80;57.00
19192;DHT22;9728;48.194;16.346;2022-10-16T05:47:45;19.70;57.10
19192;DHT22;9728;48.194;16.346;2022-10-16T05:52:49;19.70;57.20
19192;DHT22;9728;48.194;16.346;2022-10-16T05:57:54;19.70;57.20
19192;DHT22;9728;48.194;16.346;2022-10-16T06:02:59;19.70;57.40
19192;DHT22;9728;48.194;16.346;2022-10-16T06:08:02;19.60;57.40
19192;DHT22;9728;48.194;16.346;2022-10-16T06:13:06;19.70;57.50
19192;DHT22;9728;48.194;16.346;2022-10-16T06:18:11;19.60;57.50
19192;DHT22;9728;48.194;16.346;2022-10-16T06:23:14;19.70;57.60
19192;DHT22;9728;48.194;16.346;2022-10-16T06:28:18;19.70;57.80
19192;DHT22;9728;48.194;16.346;2022-10-16T06:33:23;19.70;57.60
19192;DHT22;9728;48.194;16.346;2022-10-16T06:38:26;19.70;57.60
19192;DHT22;9728;48.194;16.346;2022-10-16T06:43:31;19.80;57.60
19192;DHT22;9728;48.194;16.346;2022-10-16T06:48:38;19.80;57.60
19192;DHT22;9728;48.194;16.346;2022-10-16T06:53:45;19.80;57.70
19192;DHT22;9728;48.194;16.346;2022-10-16T06:59:06;19.90;57.70
19192;DHT22;9728;48.194;16.346;2022-10-16T07:04:11;19.90;57.60
19192;DHT22;9728;48.194;16.346;2022-10-16T07:09:15;19.90;57.60
19192;DHT22;9728;48.194;16.346;2022-10-16T07:14:20;19.90;57.50
19192;DHT22;9728;48.194;16.346;2022-10-16T07:19:25;19.90;57.50
19192;DHT22;9728;48.194;16.346;2022-10-16T07:24:34;19.90;57.60
19192;DHT22;9728;48.194;16.346;2022-10-16T07:29:37;19.90;57.60
19192;DHT22;9728;48.194;16.346;2022-10-16T07:34:42;19.90;57.60
19192;DHT22;9728;48.194;16.346;2022-10-16T07:39:45;19.90;57.70
19192;DHT22;9728;48.194;16.346;2022-10-16T07:44:50;20.00;57.70
19192;DHT22;9728;48.194;16.346;2022-10-16T07:49:55;19.90;57.70
19192;DHT22;9728;48.194;16.346;2022-10-16T07:54:58;20.00;57.80
19192;DHT22;9728;48.194;16.346;2022-10-16T08:00:02;20.00;57.70
19192;DHT22;9728;48.194;16.346;2022-10-16T08:05:14;20.00;57.70
19192;DHT22;9728;48.194;16.346;2022-10-16T08:10:19;20.00;57.80
19192;DHT22;9728;48.194;16.346;2022-10-16T08:15:23;20.10;57.90
19192;DHT22;9728;48.194;16.346;2022-10-16T08:20:29;20.10;57.90
19192;DHT22;9728;48.194;16.346;2022-10-16T08:25:34;20.10;58.00
19192;DHT22;9728;48.194;16.346;2022-10-16T08:30:38;20.10;58.00
19192;DHT22;9728;48.194;16.346;2022-10-16T08:35:49;20.20;58.00
19192;DHT22;9728;48.194;16.346;2022-10-16T08:40:55;20.20;58.10
19192;DHT22;9728;48.194;16.346;2022-10-16T08:46:15;20.30;58.00
19192;DHT22;9728;48.194;16.346;2022-10-16T08:51:27;20.30;58.10
19192;DHT22;9728;48.194;16.346;2022-10-16T08:56:32;20.40;58.10
19192;DHT22;9728;48.194;16.346;2022-10-16T09:01:39;20.40;58.30
19192;DHT22;9728;48.194;16.346;2022-10-16T09:06:47;20.50;58.30
19192;DHT22;9728;48.194;16.346;2022-10-16T09:11:58;20.60;58.10
19192;DHT22;9728;48.194;16.346;2022-10-16T09:17:14;20.70;57.90
19192;DHT22;9728;48.194;16.346;2022-10-16T09:22:27;20.70;58.00
19192;DHT22;9728;48.194;16.346;2022-10-16T09:27:31;20.80;57.90
19192;DHT22;9728;48.194;16.346;2022-10-16T09:32:35;20.80;57.70
19192;DHT22;9728;48.194;16.346;2022-10-16T09:37:40;20.80;57.60
19192;DHT22;9728;48.194;16.346;2022-10-16T09:42:44;20.90;57.70
19192;DHT22;9728;48.194;16.346;2022-10-16T09:47:48;20.90;57.60
19192;DHT22;9728;48.194;16.346;2022-10-16T09:53:08;21.00;57.60
19192;DHT22;9728;48.194;16.346;2022-10-16T09:58:15;21.00;57.50
19192;DHT22;9728;48.194;16.346;2022-10-16T10:03:33;21.10;57.60
19192;DHT22;9728;48.194;16.346;2022-10-16T10:08:38;21.10;57.40
19192;DHT22;9728;48.194;16.346;2022-10-16T10:13:42;21.10;57.40
19192;DHT22;9728;48.194;16.346;2022-10-16T10:18:45;21.20;57.50
19192;DHT22;9728;48.194;16.346;2022-10-16T10:23:56;21.20;57.40
19192;DHT22;9728;48.194;16.346;2022-10-16T10:29:06;21.30;57.30
19192;DHT22;9728;48.194;16.346;2022-10-16T10:34:39;21.30;57.60
19192;DHT22;9728;48.194;16.346;2022-10-16T10:39:49;21.40;57.60
19192;DHT22;9728;48.194;16.346;2022-10-16T10:45:20;21.50;57.50
19192;DHT22;9728;48.194;16.346;2022-10-16T10:50:30;21.50;57.30
19192;DHT22;9728;48.194;16.346;2022-10-16T10:55:46;21.60;57.50
19192;DHT22;9728;48.194;16.346;2022-10-16T11:00:57;21.60;57.40
19192;DHT22;9728;48.194;16.346;2022-10-16T11:06:06;21.70;57.40
19192;DHT22;9728;48.194;16.346;2022-10-16T11:11:16;21.80;57.40
19192;DHT22;9728;48.194;16.346;2022-10-16T11:16:26;21.90;57.50
19192;DHT22;9728;48.194;16.346;2022-10-16T11:21:37;22.00;57.70
19192;DHT22;9728;48.194;16.346;2022-10-16T11:26:46;22.10;57.70
19192;DHT22;9728;48.194;16.346;2022-10-16T11:31:54;22.20;57.90
19192;DHT22;9728;48.194;16.346;2022-10-16T11:37:02;22.30;57.90
19192;DHT22;9728;48.194;16.346;2022-10-16T11:42:11;22.60;57.60
19192;DHT22;9728;48.194;16.346;2022-10-16T11:47:27;22.70;58.60
19192;DHT22;9728;48.194;16.346;2022-10-16T11:52:57;22.90;58.10
19192;DHT22;9728;48.194;16.346;2022-10-16T11:58:08;23.20;57.80
19192;DHT22;9728;48.194;16.346;2022-10-16T12:03:20;23.40;57.40
19192;DHT22;9728;48.194;16.346;2022-10-16T12:08:25;23.50;56.90
19192;DHT22;9728;48.194;16.346;2022-10-16T12:13:35;23.70;57.00
19192;DHT22;9728;48.194;16.346;2022-10-16T12:18:40;23.80;56.40
19192;DHT22;9728;48.194;16.346;2022-10-16T12:23:49;23.90;56.20
19192;DHT22;9728;48.194;16.346;2022-10-16T12:28:55;24.00;55.90
19192;DHT22;9728;48.194;16.346;2022-10-16T12:34:02;24.00;55.70
19192;DHT22;9728;48.194;16.346;2022-10-16T12:39:06;24.10;55.70
19192;DHT22;9728;48.194;16.346;2022-10-16T12:44:24;24.20;55.70
19192;DHT22;9728;48.194;16.346;2022-10-16T12:49:36;24.20;55.50
19192;DHT22;9728;48.194;16.346;2022-10-16T12:54:40;24.30;55.30
19192;DHT22;9728;48.194;16.346;2022-10-16T12:59:51;24.30;55.50
19192;DHT22;9728;48.194;16.346;2022-10-16T13:05:09;24.40;55.20
19192;DHT22;9728;48.194;16.346;2022-10-16T13:10:23;24.40;55.20
19192;DHT22;9728;48.194;16.346;2022-10-16T13:15:52;24.40;55.10
19192;DHT22;9728;48.194;16.346;2022-10-16T13:21:07;24.50;55.00
19192;DHT22;9728;48.194;16.346;2022-10-16T13:26:24;24.50;55.10
19192;DHT22;9728;48.194;16.346;2022-10-16T13:31:32;24.50;54.90
19192;DHT22;9728;48.194;16.346;2022-10-16T13:36:45;24.60;55.10
19192;DHT22;9728;48.194;16.346;2022-10-16T13:42:01;24.60;54.90
19192;DHT22;9728;48.194;16.346;2022-10-16T13:47:19;24.70;55.00
19192;DHT22;9728;48.194;16.346;2022-10-16T13:52:23;24.70;54.80
19192;DHT22;9728;48.194;16.346;2022-10-16T13:57:26;24.70;55.00
19192;DHT22;9728;48.194;16.346;2022-10-16T14:02:34;24.80;55.00
19192;DHT22;9728;48.194;16.346;2022-10-16T14:07:39;24.80;54.60
19192;DHT22;9728;48.194;16.346;2022-10-16T14:12:43;24.80;54.80
19192;DHT22;9728;48.194;16.346;2022-10-16T14:17:50;24.80;54.70
19192;DHT22;9728;48.194;16.346;2022-10-16T14:22:59;24.90;54.40
19192;DHT22;9728;48.194;16.346;2022-10-16T14:28:04;24.90;54.30
19192;DHT22;9728;48.194;16.346;2022-10-16T14:33:22;25.00;54.50
19192;DHT22;9728;48.194;16.346;2022-10-16T14:38:25;25.10;54.30
19192;DHT22;9728;48.194;16.346;2022-10-16T14:43:32;25.10;54.90
19192;DHT22;9728;48.194;16.346;2022-10-16T14:48:42;25.20;53.90
19192;DHT22;9728;48.194;16.346;2022-10-16T14:53:47;25.20;53.70
19192;DHT22;9728;48.194;16.346;2022-10-16T14:58:51;25.30;54.00
19192;DHT22;9728;48.194;16.346;2022-10-16T15:03:56;25.30;53.80
19192;DHT22;9728;48.194;16.346;2022-10-16T15:09:00;25.30;53.50
19192;DHT22;9728;48.194;16.346;2022-10-16T15:14:04;25.30;53.50
19192;DHT22;9728;48.194;16.346;2022-10-16T15:19:09;25.30;53.40
19192;DHT22;9728;48.194;16.346;2022-10-16T15:24:13;25.40;53.30
19192;DHT22;9728;48.194;16.346;2022-10-16T15:29:21;25.40;53.20
19192;DHT22;9728;48.194;16.346;2022-10-16T15:34:26;25.40;53.00
19192;DHT22;9728;48.194;16.346;2022-10-16T15:39:29;25.40;52.80
19192;DHT22;9728;48.194;16.346;2022-10-16T15:44:37;25.30;52.90
19192;DHT22;9728;48.194;16.346;2022-10-16T15:49:42;25.40;52.70
19192;DHT22;9728;48.194;16.346;2022-10-16T15:54:46;25.40;52.60
19192;DHT22;9728;48.194;16.346;2022-10-16T15:59:55;25.40;52.70
19192;DHT22;9728;48.194;16.346;2022-10-16T16:05:00;25.30;52.60
19192;DHT22;9728;48.194;16.346;2022-10-16T16:10:06;25.30;52.40
19192;DHT22;9728;48.194;16.346;2022-10-16T16:15:10;25.30;52.40
19192;DHT22;9728;48.194;16.346;2022-10-16T16:20:16;25.30;52.50
19192;DHT22;9728;48.194;16.346;2022-10-16T16:25:20;25.30;52.30
19192;DHT22;9728;48.194;16.346;2022-10-16T16:30:23;25.20;52.30
19192;DHT22;9728;48.194;16.346;2022-10-16T16:35:30;25.20;52.30
19192;DHT22;9728;48.194;16.346;2022-10-16T16:40:34;25.10;52.50
19192;DHT22;9728;48.194;16.346;2022-10-16T16:45:38;25.10;52.90
19192;DHT22;9728;48.194;16.346;2022-10-16T16:50:43;25.10;52.20
19192;DHT22;9728;48.194;16.346;2022-10-16T16:55:47;25.00;52.20
19192;DHT22;9728;48.194;16.346;2022-10-16T17:00:52;25.00;52.20
19192;DHT22;9728;48.194;16.346;2022-10-16T17:06:07;24.90;52.10
19192;DHT22;9728;48.194;16.346;2022-10-16T17:11:14;24.90;52.20
19192;DHT22;9728;48.194;16.346;2022-10-16T17:16:21;24.80;52.20
19192;DHT22;9728;48.194;16.346;2022-10-16T17:21:30;24.80;52.20
19192;DHT22;9728;48.194;16.346;2022-10-16T17:26:35;24.80;52.30
19192;DHT22;9728;48.194;16.346;2022-10-16T17:31:43;24.80;52.50
19192;DHT22;9728;48.194;16.346;2022-10-16T17:36:51;24.70;53.00
19192;DHT22;9728;48.194;16.346;2022-10-16T17:41:58;24.80;52.90
19192;DHT22;9728;48.194;16.346;2022-10-16T17:47:04;24.80;52.90
19192;DHT22;9728;48.194;16.346;2022-10-16T17:52:12;24.80;52.80
19192;DHT22;9728;48.194;16.346;2022-10-16T17:57:17;24.80;52.70
19192;DHT22;9728;48.194;16.346;2022-10-16T18:02:24;24.80;52.50
19192;DHT22;9728;48.194;16.346;2022-10-16T18:07:32;24.80;52.40
19192;DHT22;9728;48.194;16.346;2022-10-16T18:12:38;24.70;52.20
19192;DHT22;9728;48.194;16.346;2022-10-16T18:17:44;24.70;52.20
19192;DHT22;9728;48.194;16.346;2022-10-16T18:22:51;24.70;52.20
19192;DHT22;9728;48.194;16.346;2022-10-16T18:27:57;24.60;52.00
19192;DHT22;9728;48.194;16.346;2022-10-16T18:33:02;24.60;52.10
19192;DHT22;9728;48.194;16.346;2022-10-16T18:38:09;24.50;52.30
19192;DHT22;9728;48.194;16.346;2022-10-16T18:43:15;24.50;52.30
19192;DHT22;9728;48.194;16.346;2022-10-16T18:48:21;24.40;52.30
19192;DHT22;9728;48.194;16.346;2022-10-16T18:53:28;24.40;52.40
19192;DHT22;9728;48.194;16.346;2022-10-16T18:58:41;24.40;52.30
19192;DHT22;9728;48.194;16.346;2022-10-16T19:03:47;24.40;52.30
19192;DHT22;9728;48.194;16.346;2022-10-16T19:08:54;24.40;52.30
19192;DHT22;9728;48.194;16.346;2022-10-16T19:14:00;24.30;52.20
19192;DHT22;9728;48.194;16.346;2022-10-16T19:19:07;24.20;52.10
19192;DHT22;9728;48.194;16.346;2022-10-16T19:24:15;24.20;52.20
19192;DHT22;9728;48.194;16.346;2022-10-16T19:29:20;24.20;52.10
19192;DHT22;9728;48.194;16.346;2022-10-16T19:34:25;24.10;52.10
19192;DHT22;9728;48.194;16.346;2022-10-16T19:39:30;24.00;52.10
19192;DHT22;9728;48.194;16.346;2022-10-16T19:44:34;24.00;52.10
19192;DHT22;9728;48.194;16.346;2022-10-16T19:49:38;23.80;52.10
19192;DHT22;9728;48.194;16.346;2022-10-16T19:54:44;23.80;52.10
19192;DHT22;9728;48.194;16.346;2022-10-16T19:59:50;23.70;52.10
19192;DHT22;9728;48.194;16.346;2022-10-16T20:04:54;23.70;52.20
19192;DHT22;9728;48.194;16.346;2022-10-16T20:09:59;23.60;52.20
19192;DHT22;9728;48.194;16.346;2022-10-16T20:15:04;23.60;52.30
19192;DHT22;9728;48.194;16.346;2022-10-16T20:20:08;23.50;52.40
19192;DHT22;9728;48.194;16.346;2022-10-16T20:25:13;23.40;52.40
19192;DHT22;9728;48.194;16.346;2022-10-16T20:30:20;23.40;52.50
19192;DHT22;9728;48.194;16.346;2022-10-16T20:35:24;23.30;52.50
19192;DHT22;9728;48.194;16.346;2022-10-16T20:40:32;23.20;52.50
19192;DHT22;9728;48.194;16.346;2022-10-16T20:45:36;23.20;52.60
19192;DHT22;9728;48.194;16.346;2022-10-16T20:50:40;23.10;52.70
19192;DHT22;9728;48.194;16.346;2022-10-16T20:55:45;23.10;52.70
19192;DHT22;9728;48.194;16.346;2022-10-16T21:00:49;23.00;52.70
19192;DHT22;9728;48.194;16.346;2022-10-16T21:05:52;23.00;52.80
19192;DHT22;9728;48.194;16.346;2022-10-16T21:11:08;22.90;52.80
19192;DHT22;9728;48.194;16.346;2022-10-16T21:16:13;22.80;52.90
19192;DHT22;9728;48.194;16.346;2022-10-16T21:21:21;22.80;52.90
19192;DHT22;9728;48.194;16.346;2022-10-16T21:26:28;22.80;53.00
19192;DHT22;9728;48.194;16.346;2022-10-16T21:31:32;22.70;53.00
19192;DHT22;9728;48.194;16.346;2022-10-16T21:36:38;22.60;53.10
19192;DHT22;9728;48.194;16.346;2022-10-16T21:41:44;22.60;53.80
19192;DHT22;9728;48.194;16.346;2022-10-16T21:46:49;22.60;53.20
19192;DHT22;9728;48.194;16.346;2022-10-16T21:51:53;22.50;53.20
19192;DHT22;9728;48.194;16.346;2022-10-16T21:56:57;22.50;53.20
19192;DHT22;9728;48.194;16.346;2022-10-16T22:02:01;22.40;53.30
19192;DHT22;9728;48.194;16.346;2022-10-16T22:07:04;22.40;53.30
19192;DHT22;9728;48.194;16.346;2022-10-16T22:12:09;22.40;53.30
19192;DHT22;9728;48.194;16.346;2022-10-16T22:17:12;22.30;53.30
19192;DHT22;9728;48.194;16.346;2022-10-16T22:22:16;22.30;53.40
19192;DHT22;9728;48.194;16.346;2022-10-16T22:27:20;22.30;53.40
19192;DHT22;9728;48.194;16.346;2022-10-16T22:32:24;22.20;53.40
19192;DHT22;9728;48.194;16.346;2022-10-16T22:37:27;22.20;53.50
19192;DHT22;9728;48.194;16.346;2022-10-16T22:42:34;22.20;53.50
19192;DHT22;9728;48.194;16.346;2022-10-16T22:47:38;22.10;53.60
19192;DHT22;9728;48.194;16.346;2022-10-16T22:52:41;22.10;53.60
19192;DHT22;9728;48.194;16.346;2022-10-16T22:57:46;22.10;53.70
19192;DHT22;9728;48.194;16.346;2022-10-16T23:02:49;22.00;53.60
19192;DHT22;9728;48.194;16.346;2022-10-16T23:07:52;22.00;53.70
19192;DHT22;9728;48.194;16.346;2022-10-16T23:12:59;21.90;53.70
19192;DHT22;9728;48.194;16.346;2022-10-16T23:18:03;22.00;53.80
19192;DHT22;9728;48.194;16.346;2022-10-16T23:23:07;21.90;53.80
19192;DHT22;9728;48.194;16.346;2022-10-16T23:28:11;21.90;53.80
19192;DHT22;9728;48.194;16.346;2022-10-16T23:33:14;21.80;53.80
19192;DHT22;9728;48.194;16.346;2022-10-16T23:38:19;21.80;53.90
19192;DHT22;9728;48.194;16.346;2022-10-16T23:43:24;21.80;53.90
19192;DHT22;9728;48.194;16.346;2022-10-16T23:48:30;21.70;53.90
19192;DHT22;9728;48.194;16.346;2022-10-16T23:53:33;21.70;54.00
19192;DHT22;9728;48.194;16.346;2022-10-16T23:58:38;21.70;54.00
